Terminal Aerodrome Forecast
Issued by NWS

Home | Current Version | Previous Version | Text Only | Print | Product List | Glossary On
Versions: 1 2 3 4 5 6 7 8 9 10 11 12 13 14 15 16 17 18
000
FTUS41 KPBZ 290102 AAA
TAFAGC
TAF AMD
KAGC 290102Z 2901/2924 12012KT P6SM BKN025 WS020/13040KT
     FM290400 09010G22KT 6SM -RA OVC020
     FM291400 09012G25KT 6SM -RA OVC015=

USA.gov is the U.S. government's official web portal to all federal, state and local government web resources and services.